Time;durP1;ratioP1;P1;durP2;ratioP2;P2;SDS_P1;SDS_P2;PMS_P1;PMS_P2;Temp;Humidity;BMP_temperature;BMP_pressure;BME280_temperature;BME280_humidity;BME280_pressure;Samples;Min_cycle;Max_cycle;Signal;HPM_P1;HPM_P2
2021/01/30 00:00:46;;;;;;;3.38;1.45;;;;;;;6.71;nan;95215.13;4993683;28;20248;-70
2021/01/30 00:03:14;;;;;;;2.88;0.90;;;;;;;6.67;nan;95224.00;4993884;28;20490;-71
2021/01/30 00:05:41;;;;;;;2.53;0.90;;;;;;;6.70;nan;95203.13;4993419;28;20312;-70
2021/01/30 00:08:12;;;;;;;3.05;1.02;;;;;;;6.64;nan;95235.38;4995750;28;20228;-70
2021/01/30 00:10:39;;;;;;;3.40;0.70;;;;;;;6.60;nan;95202.09;4993821;28;20737;-71
2021/01/30 00:13:07;;;;;;;1.30;0.57;;;;;;;6.60;nan;95197.75;4994326;28;20570;-71
2021/01/30 00:15:34;;;;;;;6.25;0.90;;;;;;;;;;4994983;28;20715;-72
2021/01/30 00:18:01;;;;;;;2.78;0.90;;;;;;;;;;4994884;28;20662;-70
2021/01/30 00:20:31;;;;;;;2.00;0.80;;;;;;;6.51;nan;95197.56;4993687;28;20225;-71
2021/01/30 00:22:59;;;;;;;3.28;0.80;;;;;;;6.49;nan;95194.25;4993964;28;20197;-68
2021/01/30 00:25:28;;;;;;;1.40;0.77;;;;;;;;;;4991676;28;20229;-68
2021/01/30 00:27:55;;;;;;;6.32;1.80;;;;;;;6.48;nan;95213.28;4993247;28;20564;-71
2021/01/30 00:30:23;;;;;;;2.08;0.63;;;;;;;;;;4993780;28;20735;-72
2021/01/30 00:32:52;;;;;;;1.35;0.57;;;;;;;6.47;nan;95247.81;4994484;28;20898;-69
2021/01/30 00:35:20;;;;;;;2.17;1.00;;;;;;;6.45;nan;95229.81;4994146;28;20797;-70
2021/01/30 00:37:47;;;;;;;2.15;0.80;;;;;;;6.49;nan;95241.59;4993337;28;20747;-68
2021/01/30 00:40:14;;;;;;;4.60;0.70;;;;;;;6.50;nan;95232.09;4995729;28;20720;-69
2021/01/30 00:42:41;;;;;;;1.35;0.70;;;;;;;;;;4992653;28;20233;-70
2021/01/30 00:45:08;;;;;;;9.93;1.00;;;;;;;;;;4994245;28;20236;-69
2021/01/30 00:47:36;;;;;;;4.20;0.68;;;;;;;6.57;nan;95233.31;4994138;28;20235;-70
2021/01/30 00:50:04;;;;;;;3.45;0.98;;;;;;;6.59;nan;95241.78;4992890;28;20201;-70
2021/01/30 00:52:31;;;;;;;3.85;0.90;;;;;;;6.60;nan;95227.94;4994668;28;20552;-68
2021/01/30 00:55:01;;;;;;;3.35;0.80;;;;;;;6.57;nan;95223.00;4993024;28;20209;-69
2021/01/30 00:57:28;;;;;;;1.88;0.80;;;;;;;6.61;nan;95224.41;4993723;28;20239;-70
2021/01/30 00:59:55;;;;;;;2.22;0.75;;;;;;;6.59;nan;95232.31;4993415;28;20287;-69
2021/01/30 01:02:21;;;;;;;5.00;0.63;;;;;;;;;;4992378;28;20699;-69
2021/01/30 01:04:50;;;;;;;3.22;0.75;;;;;;;6.65;nan;95231.03;4993995;28;20223;-69
2021/01/30 01:07:16;;;;;;;1.55;0.80;;;;;;;6.62;nan;95220.94;4995877;28;20723;-70
2021/01/30 01:09:43;;;;;;;1.65;0.80;;;;;;;6.67;nan;95229.16;4994081;28;20879;-70
2021/01/30 01:12:11;;;;;;;3.63;1.00;;;;;;;6.65;nan;95236.22;4992009;28;20271;-68
2021/01/30 01:14:38;;;;;;;2.78;0.70;;;;;;;6.63;nan;95295.75;4992781;28;20291;-69
2021/01/30 01:17:05;;;;;;;6.85;1.05;;;;;;;6.66;nan;95227.53;4995017;28;20303;-69
2021/01/30 01:19:32;;;;;;;3.90;0.80;;;;;;;6.69;nan;95227.34;4993652;28;20197;-69
2021/01/30 01:22:00;;;;;;;3.60;1.30;;;;;;;6.74;nan;95230.41;4993234;28;20283;-70
2021/01/30 01:24:27;;;;;;;1.70;0.80;;;;;;;6.72;nan;95222.78;4993398;28;20707;-69
2021/01/30 01:26:54;;;;;;;5.07;0.80;;;;;;;6.68;nan;95215.31;4991265;28;20256;-70
2021/01/30 01:29:22;;;;;;;7.72;1.00;;;;;;;6.69;nan;95222.16;4993335;28;20193;-69
2021/01/30 01:31:51;;;;;;;1.00;0.70;;;;;;;6.64;nan;95225.03;4992284;28;20667;-69
2021/01/30 01:34:19;;;;;;;2.45;0.73;;;;;;;;;;4992762;28;20573;-68
2021/01/30 01:36:51;;;;;;;1.90;0.80;;;;;;;;;;4991438;28;20642;-69
2021/01/30 01:39:19;;;;;;;2.20;0.90;;;;;;;6.57;nan;95213.47;4993223;28;20270;-70
2021/01/30 01:41:54;;;;;;;3.67;0.85;;;;;;;6.57;nan;95218.63;4992119;28;20252;-70
2021/01/30 01:44:21;;;;;;;5.65;0.60;;;;;;;6.51;nan;95213.06;4994139;28;20280;-67
2021/01/30 01:46:48;;;;;;;2.95;1.25;;;;;;;6.46;nan;95225.47;4993257;28;20302;-69
2021/01/30 01:49:19;;;;;;;2.03;0.70;;;;;;;6.43;nan;95230.84;4993870;28;20201;-69
2021/01/30 01:51:47;;;;;;;4.00;0.80;;;;;;;;;;4993646;28;20312;-69
2021/01/30 01:54:19;;;;;;;0.95;0.75;;;;;;;;;;4993554;28;20241;-68
2021/01/30 01:56:49;;;;;;;3.70;0.50;;;;;;;;;;4994516;28;20664;-68
2021/01/30 01:59:18;;;;;;;4.97;0.52;;;;;;;6.36;nan;95234.78;4994095;28;20233;-69
2021/01/30 02:01:46;;;;;;;0.90;0.60;;;;;;;6.40;nan;95220.75;4990911;28;20751;-69
2021/01/30 02:04:17;;;;;;;0.80;0.50;;;;;;;6.39;nan;95193.22;4990357;28;20197;-69
2021/01/30 02:06:46;;;;;;;2.45;0.60;;;;;;;6.40;nan;95226.72;4993265;28;20706;-70
2021/01/30 02:09:14;;;;;;;1.95;0.80;;;;;;;;;;4991523;28;20557;-70
2021/01/30 02:11:42;;;;;;;1.50;0.60;;;;;;;22.67;100.00;58379.25;4992619;28;20817;-70
2021/01/30 02:14:10;;;;;;;2.30;0.70;;;;;;;6.47;nan;95206.47;4996402;28;20205;-70
2021/01/30 02:16:45;;;;;;;2.65;0.70;;;;;;;6.46;nan;95189.28;4997089;28;20681;-69
2021/01/30 02:20:02;;;;;;;1.50;0.73;;;;;;;6.47;nan;95207.28;4994555;28;20197;-71
2021/01/30 02:22:58;;;;;;;0.95;0.70;;;;;;;6.47;nan;95211.63;4994014;28;20624;-70
2021/01/30 02:25:54;;;;;;;1.80;0.60;;;;;;;6.45;nan;95197.97;4993119;28;20608;-70
2021/01/30 02:28:32;;;;;;;1.92;0.60;;;;;;;6.44;nan;95196.31;4967375;28;20262;-71
2021/01/30 02:31:33;;;;;;;2.03;0.70;;;;;;;6.42;nan;95203.38;4995170;28;20567;-70
2021/01/30 02:34:17;;;;;;;0.70;0.50;;;;;;;6.39;nan;95213.88;4996637;28;20221;-70
2021/01/30 02:36:55;;;;;;;2.15;0.95;;;;;;;6.41;nan;95201.72;4995950;28;20595;-69
2021/01/30 02:39:23;;;;;;;1.00;0.70;;;;;;;;;;4995925;28;20583;-69
2021/01/30 02:41:55;;;;;;;2.08;0.55;;;;;;;6.35;nan;95191.78;4995134;28;20894;-70
2021/01/30 02:44:24;;;;;;;0.80;0.55;;;;;;;6.32;nan;95207.47;4995404;28;20189;-70
2021/01/30 02:46:53;;;;;;;1.95;0.70;;;;;;;;;;4995101;28;20746;-69
2021/01/30 02:49:25;;;;;;;1.92;0.70;;;;;;;6.27;nan;95194.06;4998809;28;20873;-72
2021/01/30 02:52:00;;;;;;;1.25;0.82;;;;;;;6.29;nan;95192.19;4996086;28;20334;-69
2021/01/30 02:54:30;;;;;;;3.42;0.95;;;;;;;6.24;nan;95189.09;4994176;28;20721;-69
2021/01/30 02:56:58;;;;;;;5.65;0.70;;;;;;;6.23;nan;95203.78;4994681;28;20225;-68
2021/01/30 02:59:29;;;;;;;3.67;0.70;;;;;;;6.25;nan;95185.59;4993146;28;20308;-70
2021/01/30 03:01:56;;;;;;;2.42;0.63;;;;;;;6.19;nan;95176.50;4993116;28;20605;-70
2021/01/30 03:04:28;;;;;;;1.80;0.60;;;;;;;6.20;nan;95147.16;4995395;28;20197;-72
2021/01/30 03:07:32;;;;;;;3.63;0.82;;;;;;;6.18;nan;95177.44;4991706;28;20839;-70
2021/01/30 03:10:07;;;;;;;1.15;0.70;;;;;;;6.15;nan;95175.06;4994460;28;20220;-69
2021/01/30 03:12:42;;;;;;;1.38;0.68;;;;;;;6.20;nan;95177.34;4994760;28;20329;-70
2021/01/30 03:15:11;;;;;;;1.77;0.60;;;;;;;;;;4995281;28;20228;-70
2021/01/30 03:17:38;;;;;;;7.60;0.70;;;;;;;6.31;nan;95205.84;4996069;28;20201;-71
2021/01/30 03:20:06;;;;;;;2.78;0.63;;;;;;;;;;4995882;28;20703;-69
2021/01/30 03:22:38;;;;;;;1.90;0.70;;;;;;;6.19;nan;95186.81;4995978;28;20581;-70
2021/01/30 03:25:05;;;;;;;0.93;0.70;;;;;;;;;;4996346;28;20704;-72
2021/01/30 03:27:33;;;;;;;4.38;1.15;;;;;;;;;;4994406;28;20589;-70
2021/01/30 03:30:01;;;;;;;0.80;0.50;;;;;;;6.22;nan;95183.22;4994487;28;20682;-69
2021/01/30 03:32:29;;;;;;;3.38;0.75;;;;;;;6.21;nan;95184.16;4995392;28;20236;-68
2021/01/30 03:34:58;;;;;;;0.90;0.50;;;;;;;6.20;nan;95198.00;4994394;28;20535;-69
2021/01/30 03:37:25;;;;;;;0.80;0.50;;;;;;;6.16;nan;95196.53;4992265;28;20722;-69
2021/01/30 03:39:53;;;;;;;1.50;0.60;;;;;;;6.13;nan;95181.25;4995742;28;20581;-70
2021/01/30 03:42:20;;;;;;;0.95;0.80;;;;;;;6.15;nan;95148.41;5000153;28;20238;-72
2021/01/30 03:44:47;;;;;;;4.65;0.55;;;;;;;6.14;nan;95162.25;4994926;28;20295;-72
2021/01/30 03:47:13;;;;;;;0.70;0.50;;;;;;;;;;5015094;28;20291;-70
2021/01/30 03:49:40;;;;;;;0.90;0.65;;;;;;;6.13;nan;95155.44;5015819;28;20513;-70
2021/01/30 03:52:07;;;;;;;0.90;0.60;;;;;;;6.15;nan;95153.56;4995356;28;20252;-71
2021/01/30 03:54:34;;;;;;;4.00;0.70;;;;;;;6.12;nan;95143.44;4995025;28;20294;-72
2021/01/30 03:57:02;;;;;;;1.90;0.70;;;;;;;;;;4993962;28;20672;-71
2021/01/30 03:59:29;;;;;;;1.35;0.57;;;;;;;6.05;nan;95157.72;4994007;28;20228;-71
2021/01/30 04:01:55;;;;;;;1.77;0.68;;;;;;;6.04;nan;95156.88;4993759;28;20775;-69
2021/01/30 04:04:22;;;;;;;1.77;0.88;;;;;;;5.98;nan;95151.31;4995521;28;20608;-70
2021/01/30 04:06:50;;;;;;;2.63;0.60;;;;;;;;;;4994411;28;20315;-71
2021/01/30 04:09:18;;;;;;;0.77;0.50;;;;;;;5.99;nan;95158.94;4992756;28;20219;-71
2021/01/30 04:11:46;;;;;;;1.27;0.50;;;;;;;5.94;nan;95157.59;4992349;28;20264;-70
2021/01/30 04:14:14;;;;;;;1.55;0.60;;;;;;;5.91;nan;95139.72;4991630;28;20248;-70
2021/01/30 04:16:41;;;;;;;2.67;0.70;;;;;;;;;;4993129;28;20217;-71
2021/01/30 04:19:08;;;;;;;0.80;0.57;;;;;;;5.75;nan;95149.41;4994624;28;20212;-71
2021/01/30 04:21:35;;;;;;;0.77;0.60;;;;;;;5.83;nan;95147.97;4993060;28;20225;-70
2021/01/30 04:24:03;;;;;;;0.90;0.52;;;;;;;5.78;nan;95124.22;4995559;28;20203;-71
2021/01/30 04:26:38;;;;;;;1.10;0.60;;;;;;;5.77;nan;95147.53;4994383;28;20331;-72
2021/01/30 04:29:04;;;;;;;0.70;0.50;;;;;;;21.40;100.00;103722.34;4994032;28;20706;-70
2021/01/30 04:31:32;;;;;;;1.10;0.60;;;;;;;5.71;nan;95142.78;4995235;28;20467;-71
2021/01/30 04:33:59;;;;;;;1.08;0.52;;;;;;;5.65;nan;95145.75;4993677;28;20209;-69
2021/01/30 04:36:26;;;;;;;3.90;0.65;;;;;;;5.64;nan;95120.88;4992587;28;20628;-73
2021/01/30 04:38:53;;;;;;;1.20;0.63;;;;;;;5.59;nan;95133.25;4994834;28;20718;-70
2021/01/30 04:41:28;;;;;;;1.00;0.70;;;;;;;;;;4992955;28;21036;-68
2021/01/30 04:44:01;;;;;;;4.30;0.60;;;;;;;5.62;nan;95107.28;4991826;28;20192;-70
2021/01/30 04:46:42;;;;;;;1.45;0.60;;;;;;;5.60;nan;95129.78;4991802;28;20610;-68
2021/01/30 04:49:16;;;;;;;0.70;0.50;;;;;;;5.59;nan;95110.03;4993871;28;20288;-68
2021/01/30 04:51:52;;;;;;;14.10;1.05;;;;;;;;;;4993007;28;20682;-72
2021/01/30 04:54:40;;;;;;;3.25;0.70;;;;;;;5.59;nan;95087.66;4993488;28;20683;-71
2021/01/30 04:57:21;;;;;;;3.65;0.70;;;;;;;5.63;nan;95114.06;4991995;28;20765;-70
2021/01/30 05:00:02;;;;;;;3.78;1.63;;;;;;;5.73;nan;95109.94;4992053;28;20291;-69
2021/01/30 05:02:38;;;;;;;5.50;1.23;;;;;;;5.81;nan;95108.53;4990919;28;20870;-71
2021/01/30 05:05:09;;;;;;;6.35;1.00;;;;;;;5.90;nan;95107.09;4992469;28;20652;-68
2021/01/30 05:07:43;;;;;;;3.75;1.20;;;;;;;5.98;nan;95105.63;4994172;28;20205;-70
2021/01/30 05:10:15;;;;;;;9.18;1.40;;;;;;;6.09;nan;95102.31;4995018;28;20338;-70
2021/01/30 05:12:55;;;;;;;10.30;1.33;;;;;;;6.10;nan;95072.97;4991542;28;20790;-70
2021/01/30 05:15:26;;;;;;;10.13;1.65;;;;;;;6.10;nan;95098.81;4994256;28;20694;-69
2021/01/30 05:17:56;;;;;;;5.05;0.90;;;;;;;;;;4994603;28;20596;-70
2021/01/30 05:20:23;;;;;;;12.27;2.35;;;;;;;6.14;nan;95064.94;4994003;28;20635;-68
2021/01/30 05:22:51;;;;;;;6.57;1.05;;;;;;;6.19;nan;95088.66;4993747;28;20664;-70
2021/01/30 05:25:23;;;;;;;11.02;1.38;;;;;;;6.22;nan;95082.47;4993388;28;20691;-71
2021/01/30 05:28:07;;;;;;;10.75;1.50;;;;;;;6.21;nan;95080.81;4995344;28;20201;-70
2021/01/30 05:30:49;;;;;;;10.63;2.05;;;;;;;6.16;nan;95088.06;4988420;28;20254;-72
2021/01/30 05:33:35;;;;;;;9.55;2.35;;;;;;;6.18;nan;95076.69;4993651;28;20204;-69
2021/01/30 05:36:08;;;;;;;17.95;2.15;;;;;;;6.20;nan;95090.31;4991458;28;20652;-71
2021/01/30 05:38:41;;;;;;;8.85;1.42;;;;;;;;;;4993850;28;20193;-71
2021/01/30 05:41:16;;;;;;;9.07;2.60;;;;;;;6.23;nan;95073.78;4992369;28;21109;-69
2021/01/30 05:43:50;;;;;;;11.38;1.85;;;;;;;6.24;nan;95071.09;4992466;28;20275;-69
2021/01/30 05:46:20;;;;;;;7.13;1.63;;;;;;;;;;4993038;28;20291;-69
2021/01/30 05:48:49;;;;;;;18.90;3.25;;;;;;;6.18;nan;95091.38;4994214;28;20713;-70
2021/01/30 05:51:18;;;;;;;9.65;1.80;;;;;;;;;;4997444;28;20308;-70
2021/01/30 05:53:45;;;;;;;11.20;1.30;;;;;;;6.21;nan;95065.31;4996523;28;20666;-70
2021/01/30 05:56:12;;;;;;;11.30;2.17;;;;;;;;;;4996193;28;20745;-70
2021/01/30 05:58:41;;;;;;;13.10;1.35;;;;;;;6.19;nan;95093.84;4998103;28;20297;-69
2021/01/30 06:01:28;;;;;;;6.25;1.55;;;;;;;6.16;nan;95094.06;4997447;28;20705;-69
2021/01/30 06:04:01;;;;;;;9.70;1.90;;;;;;;6.23;nan;95063.47;4993829;28;20228;-70
2021/01/30 06:06:32;;;;;;;8.52;2.22;;;;;;;6.19;nan;95041.38;4997328;28;20259;-69
2021/01/30 06:09:04;;;;;;;12.00;1.90;;;;;;;6.20;nan;95058.50;4995516;28;20193;-70
2021/01/30 06:11:41;;;;;;;11.82;1.98;;;;;;;6.17;nan;95043.22;4997832;28;20225;-71
2021/01/30 06:14:10;;;;;;;9.50;1.40;;;;;;;6.17;nan;95018.22;4996316;28;20236;-69
2021/01/30 06:16:42;;;;;;;11.90;2.10;;;;;;;6.18;nan;95050.06;4995679;28;20221;-69
2021/01/30 06:19:14;;;;;;;6.35;2.10;;;;;;;6.18;nan;95060.38;4996838;28;20636;-70
2021/01/30 06:21:41;;;;;;;13.70;2.17;;;;;;;;;;4996732;28;20554;-69
2021/01/30 06:24:10;;;;;;;9.90;1.63;;;;;;;6.19;nan;95046.53;4996253;28;20726;-71
2021/01/30 06:26:41;;;;;;;8.20;1.77;;;;;;;6.16;nan;95057.91;4995608;28;20308;-70
2021/01/30 06:29:17;;;;;;;8.63;1.80;;;;;;;;;;4997926;28;20248;-71
2021/01/30 06:31:44;;;;;;;6.03;1.38;;;;;;;6.16;nan;95021.75;4994862;28;20259;-69
2021/01/30 06:34:30;;;;;;;10.35;1.50;;;;;;;6.17;nan;95012.22;4995593;28;20579;-71
2021/01/30 06:36:59;;;;;;;10.80;1.90;;;;;;;6.13;nan;95031.47;4995265;28;20331;-72
2021/01/30 06:39:31;;;;;;;12.55;1.85;;;;;;;6.09;nan;95035.19;4993262;28;20928;-70
2021/01/30 06:42:15;;;;;;;10.73;2.08;;;;;;;6.07;nan;95042.22;4993741;28;20742;-70
2021/01/30 06:44:43;;;;;;;12.43;2.75;;;;;;;6.09;nan;95045.50;4994856;28;20276;-73
2021/01/30 06:47:20;;;;;;;10.23;1.90;;;;;;;6.06;nan;95030.25;4995493;28;20221;-71
2021/01/30 06:49:51;;;;;;;8.93;2.42;;;;;;;6.05;nan;95024.22;4995112;28;20243;-70
2021/01/30 06:52:23;;;;;;;12.27;2.63;;;;;;;6.04;nan;95032.09;5028269;28;20287;-70
2021/01/30 06:55:09;;;;;;;17.45;2.20;;;;;;;6.07;nan;95037.03;5025553;28;20248;-72
2021/01/30 06:57:37;;;;;;;17.40;2.83;;;;;;;;;;5024140;28;20303;-73
2021/01/30 07:00:20;;;;;;;12.75;3.00;;;;;;;6.05;nan;95036.34;5026529;28;20591;-69
2021/01/30 07:02:50;;;;;;;13.48;3.63;;;;;;;6.07;nan;95037.03;5014980;28;20232;-70
2021/01/30 07:05:26;;;;;;;12.40;2.70;;;;;;;6.12;nan;95034.97;5015937;28;20639;-71
2021/01/30 07:08:22;;;;;;;7.40;1.17;;;;;;;6.16;nan;95026.06;5011107;28;20706;-70
2021/01/30 07:10:58;;;;;;;13.35;2.58;;;;;;;6.14;nan;95028.78;5015396;28;20750;-72
2021/01/30 07:13:45;;;;;;;11.82;2.20;;;;;;;6.10;nan;95016.16;5013920;28;20228;-71
2021/01/30 07:16:16;;;;;;;12.90;1.85;;;;;;;;;;5014334;28;20235;-71
2021/01/30 07:18:51;;;;;;;15.95;2.10;;;;;;;;;;5015810;28;20208;-72
2021/01/30 07:21:22;;;;;;;8.73;1.98;;;;;;;6.08;nan;95013.72;5013687;28;20254;-70
2021/01/30 07:24:16;;;;;;;15.25;1.80;;;;;;;6.10;nan;95016.16;5014823;28;20644;-70
2021/01/30 07:26:48;;;;;;;8.05;1.58;;;;;;;6.17;nan;95022.56;5014433;28;20702;-70
2021/01/30 07:29:22;;;;;;;31.58;13.30;;;;;;;;;;5014681;28;20651;-70
2021/01/30 07:32:00;;;;;;;105.50;37.58;;;;;;;6.25;nan;94978.94;5013439;28;20313;-70
2021/01/30 07:34:31;;;;;;;13.73;4.40;;;;;;;6.36;nan;95007.41;5012110;28;20208;-69
2021/01/30 07:37:04;;;;;;;17.25;6.10;;;;;;;6.40;nan;95004.50;5012415;28;20302;-70
2021/01/30 07:39:39;;;;;;;25.75;4.32;;;;;;;6.45;nan;95006.75;5015085;28;20374;-69
2021/01/30 07:42:12;;;;;;;11.93;3.45;;;;;;;6.52;nan;94995.03;5015427;28;20306;-69
2021/01/30 07:44:54;;;;;;;8.40;3.90;;;;;;;6.56;nan;95004.25;5015210;28;20718;-69
2021/01/30 07:47:26;;;;;;;21.05;4.13;;;;;;;6.45;nan;94996.41;5014864;28;20323;-70
2021/01/30 07:49:57;;;;;;;8.30;2.10;;;;;;;6.47;nan;94999.75;5014295;28;20200;-70
2021/01/30 07:52:29;;;;;;;6.97;2.05;;;;;;;6.44;nan;94974.09;4995362;28;20375;-70
2021/01/30 07:54:59;;;;;;;17.52;2.75;;;;;;;6.44;nan;94995.59;4994899;28;20749;-70
2021/01/30 07:57:42;;;;;;;5.82;1.92;;;;;;;;;;4993142;28;20583;-70
2021/01/30 08:00:15;;;;;;;6.60;1.58;;;;;;;6.44;nan;94985.28;4993649;28;20279;-69
2021/01/30 08:03:01;;;;;;;8.80;2.22;;;;;;;;;;4996874;28;20897;-72
2021/01/30 08:05:36;;;;;;;10.75;3.78;;;;;;;6.48;nan;94988.47;4990822;28;20252;-70
2021/01/30 08:08:14;;;;;;;16.30;4.05;;;;;;;6.50;nan;94984.84;4996427;28;20277;-69
2021/01/30 08:10:54;;;;;;;23.05;8.93;;;;;;;6.54;nan;94980.25;4993225;28;20303;-69
2021/01/30 08:13:35;;;;;;;19.08;6.82;;;;;;;6.47;nan;95005.72;4993887;28;20943;-71
2021/01/30 08:16:22;;;;;;;9.95;2.75;;;;;;;;;;4991805;28;20330;-69
2021/01/30 08:18:50;;;;;;;14.73;2.05;;;;;;;6.52;nan;94985.53;4993572;28;20240;-70
2021/01/30 08:21:26;;;;;;;23.55;2.50;;;;;;;;;;4993699;28;20271;-71
2021/01/30 08:24:00;;;;;;;6.68;1.85;;;;;;;6.55;nan;94981.91;4995987;28;20710;-69
2021/01/30 08:26:28;;;;;;;13.48;2.00;;;;;;;;;;4993341;28;20777;-70
2021/01/30 08:29:15;;;;;;;16.23;3.20;;;;;;;6.66;nan;94971.63;4992689;28;20567;-71
2021/01/30 08:31:46;;;;;;;6.22;1.60;;;;;;;6.72;nan;94968.59;4993465;28;20608;-69
2021/01/30 08:34:28;;;;;;;14.18;2.13;;;;;;;;;;4991862;28;20687;-70
2021/01/30 08:36:57;;;;;;;12.02;1.75;;;;;;;6.78;nan;94974.13;4988894;28;20229;-71
2021/01/30 08:39:28;;;;;;;10.50;2.40;;;;;;;6.86;nan;94989.09;4994368;28;20201;-70
2021/01/30 08:42:00;;;;;;;7.13;2.25;;;;;;;;;;4991516;28;20603;-70
2021/01/30 08:44:36;;;;;;;7.78;1.85;;;;;;;6.79;nan;94959.44;4988529;28;20189;-71
2021/01/30 08:47:27;;;;;;;9.52;3.15;;;;;;;6.89;nan;94975.91;4993430;28;20722;-71
2021/01/30 08:50:01;;;;;;;10.43;1.95;;;;;;;6.92;nan;94970.53;4986657;28;20208;-70
2021/01/30 08:52:47;;;;;;;11.75;2.67;;;;;;;6.87;nan;94972.63;4992554;28;20270;-70
2021/01/30 08:55:35;;;;;;;8.63;2.05;;;;;;;6.82;nan;94960.03;4991115;28;20692;-69
2021/01/30 08:58:02;;;;;;;15.48;2.90;;;;;;;6.84;nan;94952.19;4994178;28;20564;-71
2021/01/30 09:00:51;;;;;;;3.33;1.55;;;;;;;6.86;nan;94971.78;4993019;28;20225;-70
2021/01/30 09:03:47;;;;;;;18.20;2.00;;;;;;;6.86;nan;94939.97;4993725;28;20630;-72
2021/01/30 09:06:55;;;;;;;10.15;2.50;;;;;;;6.88;nan;94975.13;4976436;28;20217;-71
2021/01/30 09:09:30;;;;;;;16.40;1.58;;;;;;;6.82;nan;94970.38;4993642;28;20772;-73
2021/01/30 09:12:02;;;;;;;14.52;1.90;;;;;;;;;;4990057;28;20594;-72
2021/01/30 09:14:40;;;;;;;6.90;1.73;;;;;;;6.88;nan;94969.09;4992117;28;20883;-72
2021/01/30 09:17:13;;;;;;;8.95;1.85;;;;;;;;;;4993662;28;21197;-72
2021/01/30 09:19:48;;;;;;;8.27;1.63;;;;;;;6.86;nan;94982.13;4994766;28;20283;-71
2021/01/30 09:22:20;;;;;;;21.38;2.75;;;;;;;;;;5013653;28;20698;-71
2021/01/30 09:25:06;;;;;;;16.08;2.33;;;;;;;6.88;nan;94969.09;5016272;28;20196;-71
2021/01/30 09:27:36;;;;;;;10.43;1.52;;;;;;;6.93;nan;94962.66;5013570;28;20291;-71
2021/01/30 09:30:23;;;;;;;11.73;2.67;;;;;;;26.51;100.00;78267.47;5016958;28;20291;-71
2021/01/30 09:32:50;;;;;;;13.05;2.50;;;;;;;7.03;nan;94955.88;5016147;28;20627;-71
2021/01/30 09:35:21;;;;;;;8.32;1.27;;;;;;;7.01;nan;94952.56;5016164;28;20624;-70
2021/01/30 09:37:49;;;;;;;13.60;1.85;;;;;;;6.97;nan;94952.91;5015854;28;20292;-70
2021/01/30 09:40:22;;;;;;;27.52;1.38;;;;;;;6.98;nan;94954.53;5018866;28;20227;-70
2021/01/30 09:42:58;;;;;;;25.98;2.17;;;;;;;6.93;nan;94951.50;5015694;28;20251;-71
2021/01/30 09:45:25;;;;;;;7.07;1.30;;;;;;;7.01;nan;94957.72;5014288;28;20540;-71
2021/01/30 09:47:54;;;;;;;8.75;2.03;;;;;;;7.02;nan;94955.97;5017406;28;20589;-71
2021/01/30 09:50:25;;;;;;;10.27;1.60;;;;;;;6.99;nan;94951.84;5016826;28;20231;-71
2021/01/30 09:52:56;;;;;;;20.02;2.20;;;;;;;7.01;nan;94962.09;5016808;28;20635;-71
2021/01/30 09:55:24;;;;;;;9.50;2.20;;;;;;;6.98;nan;94965.72;5016544;28;20228;-71
2021/01/30 09:57:57;;;;;;;14.32;2.17;;;;;;;7.01;nan;94954.34;5015941;28;20662;-71
2021/01/30 10:00:32;;;;;;;10.70;1.75;;;;;;;7.01;nan;94964.69;5015567;28;20251;-72
2021/01/30 10:03:07;;;;;;;7.85;2.15;;;;;;;;;;5015289;28;20675;-71
2021/01/30 10:05:34;;;;;;;13.32;2.35;;;;;;;7.03;nan;94957.63;5015700;28;20248;-70
2021/01/30 10:08:14;;;;;;;16.30;2.15;;;;;;;;;;5016788;28;20683;-71
2021/01/30 10:10:40;;;;;;;7.32;1.50;;;;;;;7.05;nan;94950.56;5015676;28;20697;-70
2021/01/30 10:13:15;;;;;;;8.45;1.52;;;;;;;6.99;nan;94957.03;5015930;28;20228;-70
2021/01/30 10:15:53;;;;;;;7.30;1.70;;;;;;;7.01;nan;94949.97;5017658;28;20219;-70
2021/01/30 10:18:22;;;;;;;7.32;1.90;;;;;;;6.97;nan;94947.72;5012732;28;20287;-70
2021/01/30 10:20:51;;;;;;;14.32;1.80;;;;;;;6.91;nan;94943.84;5016193;28;20294;-71
2021/01/30 10:23:30;;;;;;;6.32;1.52;;;;;;;6.92;nan;94960.19;5016350;28;20287;-70
2021/01/30 10:26:10;;;;;;;13.20;1.77;;;;;;;6.91;nan;94943.84;5012894;28;20224;-72
2021/01/30 10:28:41;;;;;;;11.20;1.52;;;;;;;;;;5015407;28;20831;-72
2021/01/30 10:31:10;;;;;;;13.25;2.78;;;;;;;6.90;nan;94931.03;5014676;28;20737;-70
2021/01/30 10:33:43;;;;;;;5.03;1.10;;;;;;;6.89;nan;94935.38;5017501;28;20208;-70
2021/01/30 10:36:10;;;;;;;14.82;1.95;;;;;;;6.91;nan;94928.31;5013737;28;20319;-72
2021/01/30 10:38:37;;;;;;;14.73;3.35;;;;;;;6.88;nan;94920.81;5017821;28;20318;-70
2021/01/30 10:41:05;;;;;;;6.28;1.30;;;;;;;;;;5016148;28;20698;-71
2021/01/30 10:43:41;;;;;;;7.75;1.40;;;;;;;6.83;nan;94935.00;5016333;28;20747;-69
2021/01/30 10:46:17;;;;;;;2.75;1.02;;;;;;;6.85;nan;94933.94;5017310;28;20623;-70
2021/01/30 10:48:44;;;;;;;5.22;1.50;;;;;;;;;;5016328;28;20563;-70
2021/01/30 10:51:17;;;;;;;11.55;1.30;;;;;;;;;;5014888;28;20301;-70
2021/01/30 10:53:44;;;;;;;2.65;1.35;;;;;;;6.92;nan;94908.47;5015059;28;20650;-70
2021/01/30 10:56:21;;;;;;;6.55;1.52;;;;;;;6.90;nan;94874.13;5014453;28;20726;-72
2021/01/30 10:58:49;;;;;;;5.25;1.73;;;;;;;6.96;nan;94899.53;5014446;28;20283;-72
2021/01/30 11:01:30;;;;;;;8.07;1.40;;;;;;;6.91;nan;94896.50;5016395;28;20632;-72
2021/01/30 11:03:59;;;;;;;4.30;2.25;;;;;;;6.93;nan;94895.41;5013607;28;20650;-72
2021/01/30 11:06:31;;;;;;;12.48;1.70;;;;;;;6.91;nan;94896.50;5013151;28;20243;-72
2021/01/30 11:09:02;;;;;;;16.38;1.55;;;;;;;6.93;nan;94889.44;5013282;28;20764;-73
2021/01/30 11:11:31;;;;;;;7.15;1.00;;;;;;;6.97;nan;94890.84;5015431;28;20859;-73
2021/01/30 11:13:59;;;;;;;3.58;1.35;;;;;;;7.03;nan;94893.81;5013051;28;20234;-73
2021/01/30 11:16:38;;;;;;;11.20;2.00;;;;;;;7.11;nan;94872.50;5011077;28;20315;-72
2021/01/30 11:19:18;;;;;;;7.38;1.25;;;;;;;;;;5015757;28;20214;-73
2021/01/30 11:21:45;;;;;;;5.15;1.10;;;;;;;7.16;nan;94870.41;5014391;28;20242;-72
2021/01/30 11:24:26;;;;;;;15.77;1.50;;;;;;;7.11;nan;94862.16;5012782;28;20679;-72
2021/01/30 11:26:53;;;;;;;11.30;0.90;;;;;;;6.97;nan;94854.63;5015848;28;20224;-71
2021/01/30 11:29:42;;;;;;;12.77;2.38;;;;;;;7.05;nan;94857.47;5014129;28;20204;-73
2021/01/30 11:32:13;;;;;;;2.50;1.20;;;;;;;7.00;nan;94860.41;5013420;28;20220;-73
2021/01/30 11:34:42;;;;;;;3.35;1.40;;;;;;;7.06;nan;94853.97;5013699;28;20188;-73
2021/01/30 11:37:09;;;;;;;3.30;1.20;;;;;;;7.08;nan;94847.69;5014089;28;20750;-72
2021/01/30 11:39:37;;;;;;;5.22;2.30;;;;;;;7.21;nan;94835.47;5015220;28;20287;-72
2021/01/30 11:42:05;;;;;;;10.95;2.10;;;;;;;7.25;nan;94828.31;5015189;28;20583;-73
2021/01/30 11:44:39;;;;;;;5.78;1.40;;;;;;;7.24;nan;94822.31;5014751;28;20585;-71
2021/01/30 11:47:06;;;;;;;5.60;1.40;;;;;;;7.14;nan;94815.38;5014489;28;20705;-72
2021/01/30 11:49:33;;;;;;;2.08;0.80;;;;;;;;;;5014536;28;20647;-73
2021/01/30 11:52:00;;;;;;;4.63;1.23;;;;;;;;;;5013707;28;20327;-72
2021/01/30 11:54:30;;;;;;;5.78;1.50;;;;;;;7.39;nan;94779.72;5014426;28;20539;-73
2021/01/30 11:56:57;;;;;;;4.80;1.20;;;;;;;7.56;nan;94776.63;5012533;28;20339;-73
2021/01/30 11:59:24;;;;;;;7.65;1.13;;;;;;;7.47;nan;94761.00;5016424;28;20227;-73
2021/01/30 12:01:51;;;;;;;5.20;1.50;;;;;;;7.47;nan;94792.88;5013875;28;20248;-73
2021/01/30 12:04:18;;;;;;;3.97;1.30;;;;;;;7.35;nan;94782.69;5015632;28;20987;-72
2021/01/30 12:06:45;;;;;;;2.33;1.25;;;;;;;7.36;nan;94779.94;5014034;28;20744;-73
2021/01/30 12:09:12;;;;;;;1.60;0.98;;;;;;;7.33;nan;94781.94;5013530;28;20266;-72
2021/01/30 12:11:39;;;;;;;11.07;1.95;;;;;;;7.24;nan;94785.25;5014135;28;20543;-73
2021/01/30 12:14:06;;;;;;;6.95;1.63;;;;;;;7.27;nan;94775.50;5014067;28;20296;-72
2021/01/30 12:16:33;;;;;;;3.10;1.13;;;;;;;7.23;nan;94773.28;5012964;28;20243;-74
2021/01/30 12:19:00;;;;;;;4.50;1.33;;;;;;;7.20;nan;94763.97;5013805;28;20209;-72
2021/01/30 12:21:27;;;;;;;4.97;1.00;;;;;;;7.19;nan;94769.28;5010887;28;20462;-72
2021/01/30 12:23:55;;;;;;;5.38;1.85;;;;;;;;;;5012669;28;20597;-71
2021/01/30 12:26:23;;;;;;;2.83;1.10;;;;;;;;;;5013427;28;20752;-72
2021/01/30 12:28:51;;;;;;;6.18;0.82;;;;;;;6.93;nan;94755.78;5015588;28;20221;-71
2021/01/30 12:31:18;;;;;;;7.30;0.93;;;;;;;7.02;nan;94749.06;5013009;28;20216;-74
2021/01/30 12:33:45;;;;;;;3.97;1.25;;;;;;;7.05;nan;94751.41;5014669;28;20234;-74
2021/01/30 12:36:12;;;;;;;4.20;1.08;;;;;;;6.91;nan;94736.97;5013311;28;20734;-71
2021/01/30 12:38:39;;;;;;;3.90;1.25;;;;;;;21.71;100.00;58387.69;5016125;28;20581;-71
2021/01/30 12:41:08;;;;;;;3.10;1.23;;;;;;;6.86;nan;94733.09;5013685;28;20625;-71
2021/01/30 12:43:35;;;;;;;7.40;1.27;;;;;;;6.98;nan;94732.13;5013232;28;20284;-71
2021/01/30 12:46:02;;;;;;;2.70;0.80;;;;;;;7.11;nan;94732.84;5013478;28;20534;-71